1878 Hurricane NOT_NAMED (1878236N25280)


IBTrACS version v04r00. Visit IBTrACS website for data access.
Please direct all questions to the IBTrACS Q and A forum

Storm track - Intensity - Wind Radii - Intensity Data - Source Data - All data

Summary Information

Storm ID 1878236N25280
Start Aug 23 12Z
Max Intensity 90 kt (Aug 28 12Z), 972 mb (Aug 27 12Z)
End Aug 31 12Z
ATCF IDs
Track status Best track data.

Storm track plot

Map of storm track

Intensity plots

Map of storm track

Radial wind information

No radial wind information for this storm


Position and Intensity Table

BASIN ISO_TIME_________ NATURE LAT LON MLC WIND MLC PRES
degrees north degrees east kts mb
NA 1878-08-23 12:00:00 TS 25.10 -79.80 30
NA 15:00:00 TS 25.15 -79.70 30
NA 18:00:00 TS 25.20 -79.60 30
NA 21:00:00 TS 25.25 -79.50 30
NA 1878-08-24 00:00:00 TS 25.30 -79.40 30
NA 03:00:00 TS 25.35 -79.30 30
NA 06:00:00 TS 25.40 -79.20 30
NA 09:00:00 TS 25.45 -79.10 32
NA 12:00:00 TS 25.50 -79.00 35
NA 15:00:00 TS 25.55 -78.90 37
NA 18:00:00 TS 25.60 -78.80 40
NA 21:00:00 TS 25.65 -78.70 42
NA 1878-08-25 00:00:00 TS 25.70 -78.60 45
NA 03:00:00 TS 25.75 -78.50 47
NA 06:00:00 TS 25.80 -78.40 50
NA 09:00:00 TS 25.83 -78.36 55
NA 12:00:00 TS 25.90 -78.20 60
NA 15:00:00 TS 26.07 -77.77 60
NA 18:00:00 TS 26.30 -77.20 60
NA 21:00:00 TS 26.54 -76.66 65
NA 1878-08-26 00:00:00 TS 26.80 -76.10 70
NA 03:00:00 TS 27.06 -75.54 70
NA 06:00:00 TS 27.30 -75.00 70
NA 09:00:00 TS 27.49 -74.50 72
NA 12:00:00 TS 27.70 -74.00 75
NA 15:00:00 TS 27.98 -73.46 75
NA 18:00:00 TS 28.30 -72.90 75
NA 21:00:00 TS 28.60 -72.30 75
NA 1878-08-27 00:00:00 TS 28.90 -71.70 75
NA 03:00:00 TS 29.21 -71.14 75
NA 06:00:00 TS 29.50 -70.60 75
NA 09:00:00 TS 29.74 -70.09 77
NA 12:00:00 TS 30.00 -69.50 80 972
NA 15:00:00 TS 30.33 -68.74 80
NA 18:00:00 TS 30.70 -67.90 80
NA 21:00:00 TS 31.10 -67.10 82
NA 1878-08-28 00:00:00 TS 31.50 -66.30 85
NA 03:00:00 TS 31.85 -65.49 85
NA 06:00:00 TS 32.20 -64.70 85
NA 09:00:00 TS 32.60 -63.95 87
NA 12:00:00 TS 33.00 -63.20 90
NA 15:00:00 TS 33.35 -62.41 90
NA 18:00:00 TS 33.70 -61.60 90 972
NA 21:00:00 TS 34.09 -60.80 87 972
NA 1878-08-29 00:00:00 TS 34.50 -60.00 85 973
NA 03:00:00 TS 34.91 -59.20 82 974
NA 06:00:00 TS 35.30 -58.40 80 975
NA 09:00:00 TS 35.65 -57.63 80
NA 12:00:00 TS 36.00 -56.80 80
NA 15:00:00 TS 36.40 -55.84 80
NA 18:00:00 TS 36.80 -54.80 80
NA 21:00:00 TS 37.15 -53.73 80
NA 1878-08-30 00:00:00 TS 37.50 -52.60 80
NA 03:00:00 TS 37.90 -51.43 80
NA 06:00:00 TS 38.30 -50.20 80
NA 09:00:00 TS 38.65 -48.91 77
NA 12:00:00 TS 39.00 -47.60 75
NA 15:00:00 TS 39.40 -46.31 70
NA 18:00:00 TS 39.80 -45.00 65
NA 21:00:00 TS 40.15 -43.64 60
NA 1878-08-31 00:00:00 TS 40.50 -42.20 55
NA 03:00:00 TS 40.89 -40.61 50
NA 06:00:00 TS 41.30 -39.00 45
NA 09:00:00 TS 41.71 -37.47 40
NA 12:00:00 TS 42.10 -36.00 35

Source Information

Agency Information
USA
TOKYO
CMA
HKO
NEWDELHI
REUNION
BOM
NADI
WELLINGTON
DS824
TD9636
TD9635
NEUMANN
MLC

All available IBTrACS Data

SEASON BASIN SUBBASIN ISO_TIME_________ NATURE LAT LON DIST2LAND LANDFALL IFLAG USA SSHS MLC LAT MLC LON MLC CLASS MLC WIND MLC PRES STORM SPEED STORM DIR
Year degrees north degrees east km km 1 degrees north degrees east kts mb kts degrees
1878 NA NA 1878-08-23 12:00:00 TS 25.10 -79.80 60 60 _____________O -1 25.10 -79.80 TD 30 2 61
1878 NA NA 15:00:00 TS 25.15 -79.70 68 68 _____________P -1 25.15 -79.70 TD 30 2 61
1878 NA NA 18:00:00 TS 25.20 -79.60 77 77 _____________O -1 25.20 -79.60 TD 30 2 61
1878 NA NA 21:00:00 TS 25.25 -79.50 87 82 _____________P -1 25.25 -79.50 TD 30 2 61
1878 NA NA 1878-08-24 00:00:00 TS 25.30 -79.40 89 89 _____________O -1 25.30 -79.40 TD 30 2 61
1878 NA NA 03:00:00 TS 25.35 -79.30 97 91 _____________P -1 25.35 -79.30 TD 30 2 61
1878 NA NA 06:00:00 TS 25.40 -79.20 100 100 _____________O -1 25.40 -79.20 TD 30 2 61
1878 NA NA 09:00:00 TS 25.45 -79.10 105 100 _____________P -1 25.45 -79.10 TD 32 2 61
1878 NA NA 12:00:00 TS 25.50 -79.00 100 91 _____________O -1 25.50 -79.00 TS 35 2 61
1878 NA NA 15:00:00 TS 25.55 -78.90 97 89 _____________P -1 25.55 -78.90 TS 37 2 61
1878 NA NA 18:00:00 TS 25.60 -78.80 89 82 _____________O -1 25.60 -78.80 TS 40 2 61
1878 NA NA 21:00:00 TS 25.65 -78.70 90 82 _____________P -1 25.65 -78.70 TS 42 2 61
1878 NA NA 1878-08-25 00:00:00 TS 25.70 -78.60 83 78 _____________O -1 25.70 -78.60 TS 45 2 61
1878 NA NA 03:00:00 TS 25.75 -78.50 78 78 _____________P -1 25.75 -78.50 TS 47 2 61
1878 NA NA 06:00:00 TS 25.80 -78.40 83 83 _____________O -1 25.80 -78.40 TS 50 1 59
1878 NA NA 09:00:00 TS 25.83 -78.36 83 80 _____________P -1 25.83 -78.36 TS 55 2 61
1878 NA NA 12:00:00 TS 25.90 -78.20 89 89 _____________O -1 25.90 -78.20 TS 60 6 65
1878 NA NA 15:00:00 TS 26.07 -77.77 113 113 _____________P -1 26.07 -77.77 TS 60 10 66
1878 NA NA 18:00:00 TS 26.30 -77.20 156 156 _____________O -1 26.30 -77.20 TS 60 11 65
1878 NA NA 21:00:00 TS 26.54 -76.66 203 203 _____________P -1 26.54 -76.66 TS 65 11 63
1878 NA NA 1878-08-26 00:00:00 TS 26.80 -76.10 268 268 _____________O -1 26.80 -76.10 HU 70 11 63
1878 NA NA 03:00:00 TS 27.06 -75.54 334 334 _____________P -1 27.06 -75.54 HU 70 11 63
1878 NA NA 06:00:00 TS 27.30 -75.00 387 387 _____________O -1 27.30 -75.00 HU 70 10 65
1878 NA NA 09:00:00 TS 27.49 -74.50 439 439 _____________P -1 27.49 -74.50 HU 72 10 66
1878 NA NA 12:00:00 TS 27.70 -74.00 492 492 _____________O -1 27.70 -74.00 HU 75 10 62
1878 NA NA 15:00:00 TS 27.98 -73.46 552 552 _____________P -1 27.98 -73.46 HU 75 11 58
1878 NA NA 18:00:00 TS 28.30 -72.90 619 619 _____________O -1 28.30 -72.90 HU 75 12 59
1878 NA NA 21:00:00 TS 28.60 -72.30 686 686 _____________P -1 28.60 -72.30 HU 75 12 60
1878 NA NA 1878-08-27 00:00:00 TS 28.90 -71.70 754 754 _____________O -1 28.90 -71.70 HU 75 12 59
1878 NA NA 03:00:00 TS 29.21 -71.14 796 787 _____________P -1 29.21 -71.14 HU 75 11 58
1878 NA NA 06:00:00 TS 29.50 -70.60 802 800 _____________O -1 29.50 -70.60 HU 75 11 60
1878 NA NA 09:00:00 TS 29.74 -70.09 819 811 _____________P -1 29.74 -70.09 HU 77 11 62
1878 NA NA 12:00:00 TS 30.00 -69.50 838 838 _____________O -1 30.00 -69.50 HU 80 972 13 63
1878 NA NA 15:00:00 TS 30.33 -68.74 875 875 _____________P -1 30.33 -68.74 HU 80 15 63
1878 NA NA 18:00:00 TS 30.70 -67.90 905 905 _____________O -1 30.70 -67.90 HU 80 16 61
1878 NA NA 21:00:00 TS 31.10 -67.10 937 937 _____________P -1 31.10 -67.10 HU 82 16 60
1878 NA NA 1878-08-28 00:00:00 TS 31.50 -66.30 975 975 _____________O -1 31.50 -66.30 HU 85 16 61
1878 NA NA 03:00:00 TS 31.85 -65.49 1023 1023 _____________P -1 31.85 -65.49 HU 85 15 63
1878 NA NA 06:00:00 TS 32.20 -64.70 1070 1070 _____________O -1 32.20 -64.70 HU 85 15 60
1878 NA NA 09:00:00 TS 32.60 -63.95 1121 1121 _____________P -1 32.60 -63.95 HU 87 15 58
1878 NA NA 12:00:00 TS 33.00 -63.20 1138 1133 _____________O -1 33.00 -63.20 HU 90 15 60
1878 NA NA 15:00:00 TS 33.35 -62.41 1148 1134 _____________P -1 33.35 -62.41 HU 90 15 62
1878 NA NA 18:00:00 TS 33.70 -61.60 1136 1115 _____________O -1 33.70 -61.60 HU 90 972 15 61
1878 NA NA 21:00:00 TS 34.09 -60.80 1115 1096 _____________P -1 34.09 -60.80 HU 87 972 15 59
1878 NA NA 1878-08-29 00:00:00 TS 34.50 -60.00 1100 1086 _____________I -1 34.50 -60.00 HU 85 973 15 58
1878 NA NA 03:00:00 TS 34.91 -59.20 1090 1081 _____________P -1 34.91 -59.20 HU 82 974 15 59
1878 NA NA 06:00:00 TS 35.30 -58.40 1086 1081 _____________O -1 35.30 -58.40 HU 80 975 15 60
1878 NA NA 09:00:00 TS 35.65 -57.63 1097 1082 _____________P -1 35.65 -57.63 HU 80 15 62
1878 NA NA 12:00:00 TS 36.00 -56.80 1085 1067 _____________O -1 36.00 -56.80 HU 80 16 63
1878 NA NA 15:00:00 TS 36.40 -55.84 1074 1066 _____________P -1 36.40 -55.84 HU 80 18 64
1878 NA NA 18:00:00 TS 36.80 -54.80 1072 1056 _____________O -1 36.80 -54.80 HU 80 19 66
1878 NA NA 21:00:00 TS 37.15 -53.73 1056 1012 _____________P -1 37.15 -53.73 HU 80 19 68
1878 NA NA 1878-08-30 00:00:00 TS 37.50 -52.60 1013 976 _____________O -1 37.50 -52.60 HU 80 20 68
1878 NA NA 03:00:00 TS 37.90 -51.43 978 952 _____________P -1 37.90 -51.43 HU 80 21 67
1878 NA NA 06:00:00 TS 38.30 -50.20 954 944 _____________O -1 38.30 -50.20 HU 80 21 69
1878 NA NA 09:00:00 TS 38.65 -48.91 955 947 _____________P -1 38.65 -48.91 HU 77 21 71
1878 NA NA 12:00:00 TS 39.00 -47.60 959 957 _____________O -1 39.00 -47.60 HU 75 22 70
1878 NA NA 15:00:00 TS 39.40 -46.31 975 975 _____________P -1 39.40 -46.31 HU 70 22 68
1878 NA NA 18:00:00 TS 39.80 -45.00 1004 1004 _____________O -1 39.80 -45.00 HU 65 22 70
1878 NA NA 21:00:00 TS 40.15 -43.64 1057 1049 _____________P -1 40.15 -43.64 HU 60 22 72
1878 NA NA 1878-08-31 00:00:00 TS 40.50 -42.20 1111 1111 _____________O -1 40.50 -42.20 TS 55 24 72
1878 NA NA 03:00:00 TS 40.89 -40.61 1185 1185 _____________P -1 40.89 -40.61 TS 50 25 72
1878 NA NA 06:00:00 TS 41.30 -39.00 1268 1268 _____________O -1 41.30 -39.00 TS 45 25 71
1878 NA NA 09:00:00 TS 41.71 -37.47 1350 1350 _____________P -1 41.71 -37.47 TS 40 24 70
1878 NA NA 12:00:00 TS 42.10 -36.00 1432 _____________O -1 42.10 -36.00 TS 35 23 70